Main page
METAR-TAF:

METAR-TAF

Airports :

Don Mueang International Airport

Bangkok, Thailand

latitude: 13-54-45N, longitude: 100-36-24E, elevation: 4 m

Current weather observation

The report was made 22 minutes ago, at 05:00 UTC
Wind 6 kt from the Northeast, varying between North and Southeast
Temperature 26°C
Humidity 42%
Pressure 1018 hPa
Visibility 10 km or more
no clouds below 1500 m and no cumulonimbus

METAR: VTBD 060500Z 04006KT 350V140 CAVOK 26/12 Q1018 NOSIG

Time: 12:22 (05:22 UTC)

Forecast

The report was made 6 hours and 22 minutes ago, at 23:00 UTC
Forecast valid from 06 at 00 UTC to 07 at 06 UTC
Wind 8 kt from the North/Northeast
Visibility 10 km or more
Few clouds at a height of 4000 ft

TAF: VTBD 052300Z 0600/0706 03008KT 9999 FEW040

Weather observations and forecasts of more than 4000 airports (METAR and TAF reports).

The available stations are represented by yellow and red dots on the map.

Hover mouse over dot to see the name of the station.

Then click to see weather observations and forecasts.

To change the map : click on the green buttons with a black cross to zoom in, on the green button with a dash to zoom out, or on the green arrows for adjacent maps.


METAR-TAF: